createdAt,value
2019-02-22T00:01:51.561Z,14.67
2019-02-22T00:04:21.317Z,18.43
2019-02-22T00:06:51.132Z,18.03
2019-02-22T00:09:20.884Z,17.77
2019-02-22T00:11:50.702Z,15.93
2019-02-22T00:14:21.624Z,20.60
2019-02-22T00:16:51.497Z,20.93
2019-02-22T00:19:21.244Z,19.63
2019-02-22T00:21:51.056Z,19.03
2019-02-22T00:24:20.813Z,24.20
2019-02-22T00:26:50.622Z,18.80
2019-02-22T00:29:20.662Z,21.67
2019-02-22T00:31:50.397Z,20.77
2019-02-22T00:34:20.220Z,22.07
2019-02-22T00:36:50.417Z,19.70
2019-02-22T00:39:20.244Z,17.97
2019-02-22T00:41:50.052Z,18.83
2019-02-22T00:44:19.797Z,21.60
2019-02-22T00:46:49.615Z,22.40
2019-02-22T00:49:19.374Z,25.07
2019-02-22T00:51:49.174Z,24.37
2019-02-22T00:54:18.998Z,26.37
2019-02-22T00:56:49.069Z,21.20
2019-02-22T00:59:18.961Z,20.00
2019-02-22T01:01:48.836Z,27.77
2019-02-22T01:04:18.720Z,30.87
2019-02-22T01:06:48.590Z,29.13
2019-02-22T01:09:18.410Z,24.17
2019-02-22T01:11:48.218Z,22.57
2019-02-22T01:14:17.981Z,24.03
2019-02-22T01:16:47.722Z,25.87
2019-02-22T01:19:17.478Z,23.97
2019-02-22T01:21:47.370Z,23.47
2019-02-22T01:24:17.130Z,23.77
2019-02-22T01:26:46.946Z,22.83
2019-02-22T01:29:16.741Z,26.80
2019-02-22T01:31:46.626Z,26.97
2019-02-22T01:34:16.450Z,25.47
2019-02-22T01:36:46.266Z,19.83
2019-02-22T01:39:17.065Z,14.73
2019-02-22T01:41:47.134Z,24.57
2019-02-22T01:44:21.515Z,20.07
2019-02-22T01:46:51.406Z,29.57
2019-02-22T01:49:21.225Z,26.67
2019-02-22T01:51:51.558Z,24.70
2019-02-22T01:54:22.274Z,26.50
2019-02-22T01:56:52.036Z,25.47
2019-02-22T01:59:21.862Z,27.07
2019-02-22T02:01:51.673Z,27.07
2019-02-22T02:04:21.426Z,23.97
2019-02-22T02:06:51.165Z,31.77
2019-02-22T02:09:21.237Z,23.63
2019-02-22T02:11:51.057Z,24.13
2019-02-22T02:14:20.815Z,29.97
2019-02-22T02:16:50.562Z,26.93
2019-02-22T02:19:20.555Z,27.87
2019-02-22T02:21:50.294Z,22.00
2019-02-22T02:24:20.192Z,32.23
2019-02-22T02:26:50.257Z,27.10
2019-02-22T02:29:19.999Z,22.97
2019-02-22T02:31:49.894Z,30.23
2019-02-22T02:34:20.683Z,24.50
2019-02-22T02:36:50.807Z,25.40
2019-02-22T02:39:20.609Z,36.77
2019-02-22T02:41:50.366Z,32.67
2019-02-22T02:44:20.106Z,30.00
2019-02-22T02:46:50.112Z,17.53
2019-02-22T02:49:20.145Z,22.77
2019-02-22T02:51:49.888Z,22.03
2019-02-22T02:54:19.893Z,30.53
2019-02-22T02:56:49.729Z,23.07
2019-02-22T02:59:19.480Z,24.93
2019-02-22T03:01:49.637Z,26.80
2019-02-22T03:04:19.466Z,29.93
2019-02-22T03:07:02.962Z,22.73
2019-02-22T03:09:32.781Z,31.77
2019-02-22T03:12:02.848Z,24.70
2019-02-22T03:14:32.849Z,28.83
2019-02-22T03:17:02.851Z,31.80
2019-02-22T03:19:32.595Z,25.83
2019-02-22T03:22:02.359Z,28.87
2019-02-22T03:24:32.176Z,29.77
2019-02-22T03:27:01.994Z,24.47
2019-02-22T03:29:31.742Z,29.77
2019-02-22T03:32:01.493Z,24.90
2019-02-22T03:34:31.325Z,25.73
2019-02-22T03:37:01.330Z,22.37
2019-02-22T03:39:31.070Z,33.97
2019-02-22T03:42:00.835Z,26.90
2019-02-22T03:44:30.818Z,31.87
2019-02-22T03:47:00.576Z,27.73
2019-02-22T03:49:30.376Z,22.97
2019-02-22T03:52:02.138Z,25.97
2019-02-22T03:54:31.880Z,39.60
2019-02-22T03:57:02.102Z,28.77
2019-02-22T03:59:31.998Z,26.37
2019-02-22T04:02:01.759Z,26.20
2019-02-22T04:04:31.643Z,32.83
2019-02-22T04:07:01.397Z,30.60
2019-02-22T04:09:31.130Z,33.77
2019-02-22T04:12:01.153Z,32.27
2019-02-22T04:14:31.047Z,30.87
2019-02-22T04:17:00.803Z,29.47
2019-02-22T04:19:30.545Z,28.73
2019-02-22T04:22:00.376Z,24.40
2019-02-22T04:24:30.123Z,34.37
2019-02-22T04:26:59.928Z,30.07
2019-02-22T04:29:29.822Z,28.50
2019-02-22T04:31:59.755Z,32.20
2019-02-22T04:34:29.681Z,31.57
2019-02-22T04:36:59.621Z,28.83
2019-02-22T04:39:29.509Z,34.17
2019-02-22T04:41:59.253Z,27.43
2019-02-22T04:44:28.993Z,30.93
2019-02-22T04:46:58.821Z,34.40
2019-02-22T04:49:28.575Z,34.50
2019-02-22T04:51:58.329Z,25.90
2019-02-22T04:54:28.067Z,29.17
2019-02-22T04:56:57.910Z,30.20
2019-02-22T04:59:27.716Z,15.63
2019-02-22T05:01:57.482Z,16.40
2019-02-22T05:04:27.302Z,26.30
2019-02-22T05:06:57.133Z,27.03
2019-02-22T05:09:26.946Z,25.60
2019-02-22T05:11:56.683Z,30.10
2019-02-22T05:14:26.422Z,30.33
2019-02-22T05:16:56.176Z,33.93
2019-02-22T05:19:26.422Z,33.93
2019-02-22T05:21:56.298Z,28.27
2019-02-22T05:24:26.053Z,29.00
2019-02-22T05:26:56.135Z,32.17
2019-02-22T05:29:25.881Z,34.40
2019-02-22T05:31:55.719Z,31.13
2019-02-22T05:34:25.573Z,32.40
2019-02-22T05:36:55.371Z,33.40
2019-02-22T05:39:25.133Z,36.67
2019-02-22T05:41:55.027Z,39.27
2019-02-22T05:44:24.785Z,38.33
2019-02-22T05:47:00.390Z,35.27
2019-02-22T05:49:25.977Z,38.57
2019-02-22T05:51:55.718Z,29.77
2019-02-22T05:54:25.477Z,36.20
2019-02-22T05:56:55.575Z,33.40
2019-02-22T05:59:25.409Z,38.13
2019-02-22T06:01:55.205Z,33.57
2019-02-22T06:04:24.966Z,37.90
2019-02-22T06:06:54.720Z,36.07
2019-02-22T06:09:24.474Z,39.87
2019-02-22T06:11:54.433Z,45.30
2019-02-22T06:14:24.485Z,34.63
2019-02-22T06:16:54.275Z,35.20
2019-02-22T06:19:24.202Z,36.90
2019-02-22T06:21:54.365Z,35.83
2019-02-22T06:24:24.893Z,34.90
2019-02-22T06:26:54.645Z,48.03
2019-02-22T06:29:24.409Z,39.87
2019-02-22T06:31:54.289Z,36.97
2019-02-22T06:34:24.369Z,41.20
2019-02-22T06:37:01.947Z,37.10
2019-02-22T06:39:25.565Z,50.53
2019-02-22T06:41:55.305Z,37.23
2019-02-22T06:44:25.130Z,34.63
2019-02-22T06:46:55.569Z,35.23
2019-02-22T06:49:25.357Z,31.80
2019-02-22T06:51:55.110Z,32.53
2019-02-22T06:54:26.237Z,34.80
2019-02-22T06:56:56.333Z,37.70
2019-02-22T06:59:26.166Z,37.60
2019-02-22T07:01:55.917Z,35.17
2019-02-22T07:04:25.672Z,31.00
2019-02-22T07:06:55.414Z,35.30
2019-02-22T07:09:25.157Z,33.80
2019-02-22T07:11:58.319Z,40.00
2019-02-22T07:14:28.065Z,37.50
2019-02-22T07:16:57.881Z,31.43
2019-02-22T07:19:27.621Z,29.77
2019-02-22T07:21:57.450Z,38.37
2019-02-22T07:24:27.202Z,34.77
2019-02-22T07:26:57.277Z,35.07
2019-02-22T07:29:27.028Z,34.13
2019-02-22T07:32:05.227Z,34.27
2019-02-22T07:34:28.801Z,31.63
2019-02-22T07:36:58.623Z,28.50
2019-02-22T07:39:28.713Z,35.57
2019-02-22T07:41:58.534Z,37.43
2019-02-22T07:44:28.293Z,29.57
2019-02-22T07:46:58.383Z,30.50
2019-02-22T07:49:28.329Z,29.20
2019-02-22T07:51:58.143Z,32.40
2019-02-22T07:54:27.900Z,26.37
2019-02-22T07:56:57.716Z,30.17
2019-02-22T07:59:27.539Z,30.17
2019-02-22T08:01:57.421Z,30.10
2019-02-22T08:04:27.177Z,33.73
2019-02-22T08:06:56.918Z,30.83
2019-02-22T08:09:26.699Z,37.03
2019-02-22T08:11:56.437Z,30.57
2019-02-22T08:14:26.518Z,29.00
2019-02-22T08:16:56.266Z,33.57
2019-02-22T08:19:26.031Z,34.40
2019-02-22T08:21:55.850Z,33.63
2019-02-22T08:24:26.049Z,30.93
2019-02-22T08:26:56.117Z,31.17
2019-02-22T08:29:26.005Z,29.30
2019-02-22T08:31:56.039Z,37.40
2019-02-22T08:34:26.046Z,26.37
2019-02-22T08:36:55.841Z,28.20
2019-02-22T08:39:25.999Z,34.33
2019-02-22T08:41:55.865Z,31.67
2019-02-22T08:44:25.609Z,32.10
2019-02-22T08:46:55.621Z,29.20
2019-02-22T08:49:25.365Z,31.73
2019-02-22T08:51:55.203Z,29.33
2019-02-22T08:54:24.956Z,29.80
2019-02-22T08:56:54.956Z,36.70
2019-02-22T08:59:24.852Z,29.47
2019-02-22T09:01:54.594Z,34.77
2019-02-22T09:04:24.351Z,30.97
2019-02-22T09:06:54.180Z,31.03
2019-02-22T09:09:23.923Z,29.17
2019-02-22T09:11:53.686Z,33.73
2019-02-22T09:14:23.437Z,30.77
2019-02-22T09:16:53.262Z,27.93
2019-02-22T09:19:23.295Z,25.27
2019-02-22T09:21:53.361Z,26.03
2019-02-22T09:24:24.389Z,26.83
2019-02-22T09:26:54.218Z,28.63
2019-02-22T09:29:24.041Z,31.73
2019-02-22T09:31:53.866Z,29.20
2019-02-22T09:34:23.683Z,22.73
2019-02-22T09:36:54.415Z,26.23
2019-02-22T09:39:24.161Z,27.27
2019-02-22T09:41:53.946Z,26.87
2019-02-22T09:44:23.693Z,24.50
2019-02-22T09:46:53.534Z,24.67
2019-02-22T09:49:23.419Z,24.37
2019-02-22T09:51:53.249Z,25.03
2019-02-22T09:54:24.641Z,23.30
2019-02-22T09:56:54.473Z,26.30
2019-02-22T09:59:24.299Z,23.30
2019-02-22T10:01:54.130Z,23.63
2019-02-22T10:04:23.935Z,24.67
2019-02-22T10:06:53.700Z,24.27
2019-02-22T10:09:23.718Z,19.23
2019-02-22T10:11:53.473Z,21.70
2019-02-22T10:14:23.220Z,28.83
2019-02-22T10:16:52.960Z,22.07
2019-02-22T10:19:22.744Z,23.50
2019-02-22T10:21:52.805Z,24.17
2019-02-22T10:24:22.699Z,26.47
2019-02-22T10:26:52.618Z,21.90
2019-02-22T10:29:22.549Z,24.60
2019-02-22T10:31:53.377Z,22.03
2019-02-22T10:34:23.431Z,19.37
2019-02-22T10:36:53.412Z,22.37
2019-02-22T10:39:23.495Z,21.60
2019-02-22T10:41:53.407Z,20.20
2019-02-22T10:44:23.220Z,19.13
2019-02-22T10:46:53.245Z,21.47
2019-02-22T10:49:23.398Z,21.33
2019-02-22T10:51:54.190Z,20.43
2019-02-22T10:54:23.950Z,19.30
2019-02-22T10:56:53.782Z,20.90
2019-02-22T10:59:23.520Z,16.20
2019-02-22T11:01:53.358Z,16.87
2019-02-22T11:04:23.529Z,18.83
2019-02-22T11:06:53.277Z,16.77
2019-02-22T11:09:23.360Z,19.23
2019-02-22T11:11:53.366Z,20.20
2019-02-22T11:14:29.321Z,19.63
2019-02-22T11:16:55.113Z,18.43
2019-02-22T11:19:24.858Z,18.23
2019-02-22T11:21:54.610Z,14.77
2019-02-22T11:24:24.362Z,16.03
2019-02-22T11:26:54.104Z,15.73
2019-02-22T11:29:23.928Z,17.93
2019-02-22T11:31:53.692Z,15.17
2019-02-22T11:34:23.432Z,15.10
2019-02-22T11:36:53.416Z,14.57
2019-02-22T11:39:23.241Z,15.57
2019-02-22T11:41:53.159Z,14.83
2019-02-22T11:44:23.933Z,14.03
2019-02-22T11:46:53.677Z,14.03
2019-02-22T11:49:23.664Z,13.30
2019-02-22T11:51:55.889Z,11.93
2019-02-22T11:54:24.911Z,17.17
2019-02-22T11:56:54.920Z,14.73
2019-02-22T11:59:24.822Z,14.90
2019-02-22T12:01:54.810Z,16.20
2019-02-22T12:04:24.629Z,12.37
2019-02-22T12:06:54.422Z,12.03
2019-02-22T12:09:25.133Z,12.90
2019-02-22T12:11:54.953Z,12.70
2019-02-22T12:14:24.766Z,12.40
2019-02-22T12:16:54.517Z,12.60
2019-02-22T12:19:24.265Z,12.03
2019-02-22T12:21:54.112Z,18.93
2019-02-22T12:24:23.869Z,21.30
2019-02-22T12:26:53.608Z,16.33
2019-02-22T12:29:23.654Z,10.93
2019-02-22T12:31:53.958Z,15.33
2019-02-22T12:34:24.241Z,15.23
2019-02-22T12:36:54.109Z,15.17
2019-02-22T12:39:24.230Z,14.23
2019-02-22T12:41:54.181Z,12.73
2019-02-22T12:44:24.225Z,15.40
2019-02-22T12:46:54.095Z,14.27
2019-02-22T12:49:24.219Z,21.37
2019-02-22T12:51:54.154Z,12.43
2019-02-22T12:54:24.133Z,12.17
2019-02-22T12:56:57.297Z,13.03
2019-02-22T12:59:26.550Z,13.63
2019-02-22T13:01:58.406Z,17.00
2019-02-22T13:04:28.238Z,24.83
2019-02-22T13:06:57.999Z,14.33
2019-02-22T13:09:36.217Z,17.30
2019-02-22T13:11:59.963Z,13.93
2019-02-22T13:14:29.730Z,9.33
2019-02-22T13:16:59.498Z,9.40
2019-02-22T13:19:29.276Z,8.50
2019-02-22T13:21:59.173Z,11.73
2019-02-22T13:24:28.929Z,9.07
2019-02-22T13:26:58.700Z,9.53
2019-02-22T13:29:28.490Z,10.00
2019-02-22T13:31:58.251Z,12.30
2019-02-22T13:34:28.010Z,11.27
2019-02-22T13:36:58.097Z,11.17
2019-02-22T13:39:28.208Z,13.27
2019-02-22T13:41:58.047Z,8.93
2019-02-22T13:44:27.845Z,9.90
2019-02-22T13:46:58.013Z,7.87
2019-02-22T13:49:28.028Z,9.33
2019-02-22T13:51:57.846Z,6.20
2019-02-22T13:54:27.757Z,6.80
2019-02-22T13:56:57.522Z,6.00
2019-02-22T13:59:27.299Z,4.97
2019-02-22T14:01:57.118Z,6.93
2019-02-22T14:04:26.900Z,7.47
2019-02-22T14:06:57.705Z,6.53
2019-02-22T14:09:27.481Z,7.40
2019-02-22T14:11:57.305Z,6.33
2019-02-22T14:14:27.450Z,5.73
2019-02-22T14:16:57.397Z,5.70
2019-02-22T14:19:27.243Z,10.10
2019-02-22T14:21:57.357Z,3.83
2019-02-22T14:24:27.230Z,3.03
2019-02-22T14:26:57.065Z,3.33
2019-02-22T14:29:26.822Z,2.83
2019-02-22T14:31:56.642Z,2.87
2019-02-22T14:34:26.699Z,2.80
2019-02-22T14:36:56.554Z,2.27
2019-02-22T14:39:27.265Z,1.70
2019-02-22T14:41:57.835Z,2.33
2019-02-22T14:44:28.011Z,1.93
2019-02-22T14:46:57.797Z,2.47
2019-02-22T14:49:28.270Z,2.40
2019-02-22T14:51:58.189Z,2.23
2019-02-22T14:54:27.995Z,2.43
2019-02-22T14:56:58.047Z,2.70
2019-02-22T14:59:28.029Z,5.10
2019-02-22T15:01:58.374Z,4.20
2019-02-22T15:04:29.245Z,2.37
2019-02-22T15:06:59.074Z,2.13
2019-02-22T15:09:28.982Z,1.50
2019-02-22T15:11:58.962Z,1.57
2019-02-22T15:14:31.774Z,2.83
2019-02-22T15:17:23.821Z,1.73
2019-02-22T15:19:54.085Z,1.53
2019-02-22T15:22:24.187Z,1.73
2019-02-22T15:24:54.012Z,2.20
2019-02-22T15:27:23.883Z,1.70
2019-02-22T15:29:53.937Z,3.73
2019-02-22T15:32:23.823Z,3.37
2019-02-22T15:34:53.827Z,2.33
2019-02-22T15:37:24.124Z,2.63
2019-02-22T15:39:53.919Z,2.30
2019-02-22T15:42:23.737Z,2.10
2019-02-22T15:44:53.484Z,2.13
2019-02-22T15:47:23.566Z,3.80
2019-02-22T15:49:53.422Z,2.33
2019-02-22T15:52:23.357Z,2.57
2019-02-22T15:54:53.266Z,5.37
2019-02-22T15:57:25.039Z,6.40
2019-02-22T15:59:54.707Z,6.23
2019-02-22T16:02:24.470Z,3.63
2019-02-22T16:05:02.079Z,4.40
2019-02-22T16:07:44.327Z,5.70
2019-02-22T16:10:13.744Z,4.57
2019-02-22T16:12:44.529Z,5.60
2019-02-22T16:15:16.023Z,3.77
2019-02-22T16:17:46.226Z,5.73
2019-02-22T16:20:16.643Z,2.73
2019-02-22T16:22:46.563Z,3.07
2019-02-22T16:25:19.861Z,4.00
2019-02-22T16:27:52.798Z,6.77
2019-02-22T16:30:23.120Z,9.43
2019-02-22T16:32:53.751Z,9.50
2019-02-22T16:35:23.705Z,8.10
2019-02-22T16:37:53.544Z,4.87
2019-02-22T16:40:23.365Z,4.07
2019-02-22T16:42:53.387Z,3.87
2019-02-22T16:45:23.683Z,3.73
2019-02-22T16:47:54.002Z,4.13
2019-02-22T16:50:24.197Z,2.67
2019-02-22T16:52:54.427Z,2.70
2019-02-22T16:55:24.570Z,2.03
2019-02-22T16:57:55.018Z,1.83
2019-02-22T17:00:25.053Z,7.47
2019-02-22T17:02:55.015Z,4.67
2019-02-22T17:05:25.454Z,2.27
2019-02-22T17:07:55.316Z,1.87
2019-02-22T17:10:25.269Z,2.30
2019-02-22T17:12:55.806Z,2.50
2019-02-22T17:15:25.648Z,4.77
2019-02-22T17:17:55.512Z,5.10
2019-02-22T17:20:25.566Z,5.07
2019-02-22T17:22:55.387Z,2.70
2019-02-22T17:25:25.335Z,3.77
2019-02-22T17:27:55.358Z,5.47
2019-02-22T17:30:25.214Z,8.47
2019-02-22T17:32:54.969Z,4.80
2019-02-22T17:35:25.780Z,3.17
2019-02-22T17:37:55.861Z,5.47
2019-02-22T17:40:25.653Z,2.30
2019-02-22T17:42:55.410Z,2.67
2019-02-22T17:45:25.619Z,2.57
2019-02-22T17:47:55.438Z,2.30
2019-02-22T17:50:25.523Z,2.20
2019-02-22T17:52:55.291Z,1.50
2019-02-22T17:55:25.106Z,2.20
2019-02-22T17:57:55.177Z,2.30
2019-02-22T18:00:25.434Z,2.27
2019-02-22T18:02:55.266Z,2.30
2019-02-22T18:05:25.670Z,2.20
2019-02-22T18:07:55.625Z,2.63
2019-02-22T18:10:25.508Z,3.43
2019-02-22T18:12:55.345Z,4.33
2019-02-22T18:15:25.249Z,4.53
2019-02-22T18:17:55.269Z,3.73
2019-02-22T18:20:25.170Z,3.37
2019-02-22T18:22:54.974Z,5.50
2019-02-22T18:25:24.780Z,6.60
2019-02-22T18:27:54.589Z,5.50
2019-02-22T18:30:24.391Z,4.20
2019-02-22T18:32:54.261Z,4.13
2019-02-22T18:35:24.327Z,3.73
2019-02-22T18:37:54.123Z,4.33
2019-02-22T18:40:24.028Z,4.13
2019-02-22T18:42:53.901Z,4.53
2019-02-22T18:45:23.977Z,5.03
2019-02-22T18:47:53.894Z,4.33
2019-02-22T18:50:23.750Z,4.40
2019-02-22T18:52:53.632Z,7.00
2019-02-22T18:55:23.482Z,4.40
2019-02-22T18:57:53.453Z,6.23
2019-02-22T19:00:23.828Z,5.87
2019-02-22T19:02:53.789Z,6.60
2019-02-22T19:05:23.877Z,5.67
2019-02-22T19:07:53.778Z,5.83
2019-02-22T19:10:24.837Z,5.13
2019-02-22T19:12:54.581Z,5.50
2019-02-22T19:15:24.395Z,5.20
2019-02-22T19:17:54.497Z,8.63
2019-02-22T19:20:24.405Z,5.60
2019-02-22T19:22:54.253Z,5.03
2019-02-22T19:25:24.246Z,7.50
2019-02-22T19:27:54.068Z,5.27
2019-02-22T19:30:23.917Z,5.97
2019-02-22T19:32:53.799Z,5.83
2019-02-22T19:35:23.615Z,5.20
2019-02-22T19:37:53.417Z,6.50
2019-02-22T19:40:23.328Z,9.07
2019-02-22T19:42:53.169Z,12.20
2019-02-22T19:45:23.125Z,13.43
2019-02-22T19:47:53.369Z,5.83
2019-02-22T19:50:23.224Z,8.03
2019-02-22T19:52:53.130Z,9.57
2019-02-22T19:55:22.974Z,6.50
2019-02-22T19:57:52.877Z,6.37
2019-02-22T20:00:23.757Z,7.23
2019-02-22T20:02:53.621Z,6.07
2019-02-22T20:05:23.494Z,5.53
2019-02-22T20:07:53.414Z,6.13
2019-02-22T20:10:23.360Z,7.67
2019-02-22T20:12:53.493Z,6.00
2019-02-22T20:15:24.349Z,7.80
2019-02-22T20:17:55.091Z,5.53
2019-02-22T20:20:25.059Z,6.43
2019-02-22T20:22:54.985Z,6.30
2019-02-22T20:25:24.883Z,7.33
2019-02-22T20:27:54.642Z,6.47
2019-02-22T20:30:24.482Z,7.87
2019-02-22T20:32:54.453Z,6.43
2019-02-22T20:35:24.247Z,6.60
2019-02-22T20:37:54.069Z,6.23
2019-02-22T20:40:25.013Z,4.90
2019-02-22T20:42:57.921Z,6.80
2019-02-22T20:45:27.849Z,5.80
2019-02-22T20:48:05.177Z,5.57
2019-02-22T20:50:29.589Z,6.53
2019-02-22T20:52:59.457Z,5.87
2019-02-22T20:55:29.510Z,5.70
2019-02-22T20:57:59.266Z,5.33
2019-02-22T21:00:29.208Z,5.67
2019-02-22T21:02:59.058Z,5.33
2019-02-22T21:05:28.873Z,4.60
2019-02-22T21:07:58.711Z,5.20
2019-02-22T21:10:28.485Z,5.00
2019-02-22T21:12:58.253Z,5.53
2019-02-22T21:15:28.167Z,5.07
2019-02-22T21:17:58.138Z,5.23
2019-02-22T21:20:28.336Z,5.43
2019-02-22T21:22:59.441Z,7.37
2019-02-22T21:25:29.578Z,4.47
2019-02-22T21:27:59.642Z,5.93
2019-02-22T21:30:30.055Z,4.70
2019-02-22T21:33:00.020Z,5.53
2019-02-22T21:35:30.385Z,4.97
2019-02-22T21:38:00.645Z,5.97
2019-02-22T21:40:31.580Z,5.60
2019-02-22T21:43:01.523Z,5.47
2019-02-22T21:45:31.373Z,6.43
2019-02-22T21:48:01.193Z,5.37
2019-02-22T21:50:31.281Z,5.93
2019-02-22T21:53:01.265Z,6.10
2019-02-22T21:55:31.079Z,6.47
2019-02-22T21:58:02.528Z,6.70
2019-02-22T22:00:32.346Z,6.20
2019-02-22T22:03:02.158Z,5.30
2019-02-22T22:05:32.021Z,5.83
2019-02-22T22:08:01.762Z,5.77
2019-02-22T22:10:31.765Z,5.50
2019-02-22T22:13:01.607Z,5.03
2019-02-22T22:15:31.348Z,5.13
2019-02-22T22:18:01.177Z,7.80
2019-02-22T22:20:30.986Z,6.27
2019-02-22T22:23:00.734Z,5.37
2019-02-22T22:25:30.614Z,4.90
2019-02-22T22:28:00.460Z,6.20
2019-02-22T22:30:30.313Z,6.17
2019-02-22T22:33:00.148Z,5.47
2019-02-22T22:35:29.990Z,6.23
2019-02-22T22:38:00.070Z,4.73
2019-02-22T22:40:29.838Z,4.90
2019-02-22T22:42:59.797Z,5.80
2019-02-22T22:45:29.837Z,4.60
2019-02-22T22:48:00.779Z,5.57
2019-02-22T22:50:30.651Z,4.63
2019-02-22T22:53:00.645Z,5.13
2019-02-22T22:55:30.658Z,5.23
2019-02-22T22:58:00.494Z,5.53
2019-02-22T23:01:02.827Z,6.10
2019-02-22T23:03:32.799Z,5.90
2019-02-22T23:06:02.910Z,5.67
2019-02-22T23:08:32.896Z,6.77
2019-02-22T23:11:02.815Z,6.63
2019-02-22T23:13:32.634Z,5.20
2019-02-22T23:16:02.505Z,4.53
2019-02-22T23:18:32.752Z,4.87
2019-02-22T23:21:02.494Z,4.60
2019-02-22T23:23:32.671Z,4.93
2019-02-22T23:26:02.565Z,12.37
2019-02-22T23:28:32.421Z,4.10
2019-02-22T23:31:02.569Z,5.67
2019-02-22T23:33:32.472Z,4.53
2019-02-22T23:36:02.642Z,5.33
2019-02-22T23:38:32.548Z,5.40
2019-02-22T23:41:03.366Z,4.97
2019-02-22T23:43:33.184Z,5.27
2019-02-22T23:46:03.228Z,4.43
2019-02-22T23:48:33.101Z,5.00
2019-02-22T23:51:03.912Z,4.50
2019-02-22T23:53:33.873Z,5.50
2019-02-22T23:56:03.812Z,5.10
2019-02-22T23:58:34.689Z,5.53
